sensor_id;sensor_type;location;lat;lon;timestamp;temperature;humidity
34833;DHT22;55941;50.800;4.342;2022-09-03T00:01:53;20.20;97.20
34833;DHT22;55941;50.800;4.342;2022-09-03T00:04:54;20.30;97.00
34833;DHT22;55941;50.800;4.342;2022-09-03T00:07:33;20.30;97.10
34833;DHT22;55941;50.800;4.342;2022-09-03T00:10:04;20.30;97.20
34833;DHT22;55941;50.800;4.342;2022-09-03T00:12:37;20.20;97.50
34833;DHT22;55941;50.800;4.342;2022-09-03T00:15:05;20.30;97.40
34833;DHT22;55941;50.800;4.342;2022-09-03T00:17:43;20.30;97.50
34833;DHT22;55941;50.800;4.342;2022-09-03T00:20:21;20.20;97.80
34833;DHT22;55941;50.800;4.342;2022-09-03T00:22:52;20.10;98.10
34833;DHT22;55941;50.800;4.342;2022-09-03T00:25:38;20.00;98.30
34833;DHT22;55941;50.800;4.342;2022-09-03T00:28:12;19.90;98.40
34833;DHT22;55941;50.800;4.342;2022-09-03T00:30:40;19.90;98.40
34833;DHT22;55941;50.800;4.342;2022-09-03T00:33:17;19.90;98.50
34833;DHT22;55941;50.800;4.342;2022-09-03T00:38:18;19.90;99.10
34833;DHT22;55941;50.800;4.342;2022-09-03T00:43:43;19.80;98.90
34833;DHT22;55941;50.800;4.342;2022-09-03T00:51:51;19.90;98.50
34833;DHT22;55941;50.800;4.342;2022-09-03T00:54:41;19.90;98.00
34833;DHT22;55941;50.800;4.342;2022-09-03T00:57:29;19.90;97.70
34833;DHT22;55941;50.800;4.342;2022-09-03T01:00:19;20.00;97.50
34833;DHT22;55941;50.800;4.342;2022-09-03T01:10:30;20.00;97.20
34833;DHT22;55941;50.800;4.342;2022-09-03T01:26:17;19.90;98.00
34833;DHT22;55941;50.800;4.342;2022-09-03T01:29:05;19.80;98.00
34833;DHT22;55941;50.800;4.342;2022-09-03T01:31:42;19.80;98.20
34833;DHT22;55941;50.800;4.342;2022-09-03T01:40:24;20.00;97.80
34833;DHT22;55941;50.800;4.342;2022-09-03T01:46:35;20.00;97.80
34833;DHT22;55941;50.800;4.342;2022-09-03T01:51:53;20.00;97.90
34833;DHT22;55941;50.800;4.342;2022-09-03T01:54:29;20.00;97.90
34833;DHT22;55941;50.800;4.342;2022-09-03T01:57:13;20.00;97.90
34833;DHT22;55941;50.800;4.342;2022-09-03T01:59:59;20.00;98.10
34833;DHT22;55941;50.800;4.342;2022-09-03T02:02:27;19.90;98.00
34833;DHT22;55941;50.800;4.342;2022-09-03T02:07:30;19.90;98.50
34833;DHT22;55941;50.800;4.342;2022-09-03T02:09:59;19.90;98.50
34833;DHT22;55941;50.800;4.342;2022-09-03T02:12:27;19.90;98.30
34833;DHT22;55941;50.800;4.342;2022-09-03T02:14:55;19.90;98.30
34833;DHT22;55941;50.800;4.342;2022-09-03T02:17:21;19.90;98.50
34833;DHT22;55941;50.800;4.342;2022-09-03T02:19:48;19.90;98.70
34833;DHT22;55941;50.800;4.342;2022-09-03T02:22:14;19.80;98.90
34833;DHT22;55941;50.800;4.342;2022-09-03T02:24:40;19.70;99.10
34833;DHT22;55941;50.800;4.342;2022-09-03T02:27:06;19.70;99.40
34833;DHT22;55941;50.800;4.342;2022-09-03T02:29:32;19.70;99.70
34833;DHT22;55941;50.800;4.342;2022-09-03T02:31:57;19.60;99.80
34833;DHT22;55941;50.800;4.342;2022-09-03T02:34:23;19.70;99.90
34833;DHT22;55941;50.800;4.342;2022-09-03T02:36:49;19.70;99.90
34833;DHT22;55941;50.800;4.342;2022-09-03T02:39:15;19.70;99.90
34833;DHT22;55941;50.800;4.342;2022-09-03T02:41:41;19.70;99.90
34833;DHT22;55941;50.800;4.342;2022-09-03T02:44:23;19.70;99.90
34833;DHT22;55941;50.800;4.342;2022-09-03T02:47:01;19.70;99.90
34833;DHT22;55941;50.800;4.342;2022-09-03T02:49:27;19.80;99.90
34833;DHT22;55941;50.800;4.342;2022-09-03T02:52:02;19.90;99.90
34833;DHT22;55941;50.800;4.342;2022-09-03T02:54:34;19.80;99.90
34833;DHT22;55941;50.800;4.342;2022-09-03T02:57:07;19.90;99.90
34833;DHT22;55941;50.800;4.342;2022-09-03T02:59:33;19.90;99.90
34833;DHT22;55941;50.800;4.342;2022-09-03T03:01:59;20.10;99.60
34833;DHT22;55941;50.800;4.342;2022-09-03T03:04:25;20.00;99.50
34833;DHT22;55941;50.800;4.342;2022-09-03T03:06:51;20.00;99.60
34833;DHT22;55941;50.800;4.342;2022-09-03T03:09:17;20.00;99.50
34833;DHT22;55941;50.800;4.342;2022-09-03T03:11:43;20.20;99.40
34833;DHT22;55941;50.800;4.342;2022-09-03T03:14:09;20.10;99.70
34833;DHT22;55941;50.800;4.342;2022-09-03T03:16:35;20.00;99.90
34833;DHT22;55941;50.800;4.342;2022-09-03T03:19:01;20.00;99.90
34833;DHT22;55941;50.800;4.342;2022-09-03T03:21:27;20.10;99.90
34833;DHT22;55941;50.800;4.342;2022-09-03T03:23:53;20.00;99.90
34833;DHT22;55941;50.800;4.342;2022-09-03T03:26:20;20.20;99.80
34833;DHT22;55941;50.800;4.342;2022-09-03T03:28:48;20.20;99.90
34833;DHT22;55941;50.800;4.342;2022-09-03T03:31:19;20.20;99.90
34833;DHT22;55941;50.800;4.342;2022-09-03T03:33:50;20.30;99.90
34833;DHT22;55941;50.800;4.342;2022-09-03T03:36:16;20.20;99.90
34833;DHT22;55941;50.800;4.342;2022-09-03T03:38:43;20.20;99.90
34833;DHT22;55941;50.800;4.342;2022-09-03T03:41:18;20.10;99.90
34833;DHT22;55941;50.800;4.342;2022-09-03T03:43:44;19.90;99.90
34833;DHT22;55941;50.800;4.342;2022-09-03T03:46:10;20.00;99.90
34833;DHT22;55941;50.800;4.342;2022-09-03T03:48:37;19.80;99.90
34833;DHT22;55941;50.800;4.342;2022-09-03T03:51:06;19.70;99.90
34833;DHT22;55941;50.800;4.342;2022-09-03T03:53:37;19.60;99.90
34833;DHT22;55941;50.800;4.342;2022-09-03T03:56:05;19.50;99.90
34833;DHT22;55941;50.800;4.342;2022-09-03T03:58:33;19.40;99.90
34833;DHT22;55941;50.800;4.342;2022-09-03T04:01:10;19.40;99.90
34833;DHT22;55941;50.800;4.342;2022-09-03T04:03:36;19.40;99.90
34833;DHT22;55941;50.800;4.342;2022-09-03T04:06:03;19.30;99.90
34833;DHT22;55941;50.800;4.342;2022-09-03T04:08:30;19.30;99.90
34833;DHT22;55941;50.800;4.342;2022-09-03T04:11:00;19.30;99.90
34833;DHT22;55941;50.800;4.342;2022-09-03T04:13:31;19.20;99.90
34833;DHT22;55941;50.800;4.342;2022-09-03T04:16:05;19.20;99.90
34833;DHT22;55941;50.800;4.342;2022-09-03T04:18:31;19.20;99.90
34833;DHT22;55941;50.800;4.342;2022-09-03T04:21:09;19.20;99.90
34833;DHT22;55941;50.800;4.342;2022-09-03T04:23:41;19.20;99.90
34833;DHT22;55941;50.800;4.342;2022-09-03T04:26:09;19.20;99.90
34833;DHT22;55941;50.800;4.342;2022-09-03T04:28:35;19.10;99.90
34833;DHT22;55941;50.800;4.342;2022-09-03T04:31:03;19.10;99.90
34833;DHT22;55941;50.800;4.342;2022-09-03T04:33:30;19.10;99.90
34833;DHT22;55941;50.800;4.342;2022-09-03T04:36:23;19.00;99.90
34833;DHT22;55941;50.800;4.342;2022-09-03T04:38:51;18.90;99.90
34833;DHT22;55941;50.800;4.342;2022-09-03T04:41:26;18.90;99.90
34833;DHT22;55941;50.800;4.342;2022-09-03T04:43:53;19.00;99.90
34833;DHT22;55941;50.800;4.342;2022-09-03T04:46:22;19.00;99.90
34833;DHT22;55941;50.800;4.342;2022-09-03T04:48:49;18.90;99.90
34833;DHT22;55941;50.800;4.342;2022-09-03T04:51:18;18.90;99.90
34833;DHT22;55941;50.800;4.342;2022-09-03T04:53:45;19.00;99.90
34833;DHT22;55941;50.800;4.342;2022-09-03T04:58:38;19.20;99.90
34833;DHT22;55941;50.800;4.342;2022-09-03T05:01:09;19.10;99.90
34833;DHT22;55941;50.800;4.342;2022-09-03T05:03:35;19.10;99.90
34833;DHT22;55941;50.800;4.342;2022-09-03T05:06:02;19.20;99.90
34833;DHT22;55941;50.800;4.342;2022-09-03T05:08:28;19.30;99.90
34833;DHT22;55941;50.800;4.342;2022-09-03T05:10:58;19.20;99.90
34833;DHT22;55941;50.800;4.342;2022-09-03T05:13:25;19.10;99.90
34833;DHT22;55941;50.800;4.342;2022-09-03T05:15:51;19.10;99.90
34833;DHT22;55941;50.800;4.342;2022-09-03T05:18:16;19.00;99.90
34833;DHT22;55941;50.800;4.342;2022-09-03T05:20:42;19.00;99.90
34833;DHT22;55941;50.800;4.342;2022-09-03T05:23:08;19.00;99.90
34833;DHT22;55941;50.800;4.342;2022-09-03T05:25:34;19.10;99.90
34833;DHT22;55941;50.800;4.342;2022-09-03T05:28:03;19.10;99.90
34833;DHT22;55941;50.800;4.342;2022-09-03T05:30:29;19.10;99.90
34833;DHT22;55941;50.800;4.342;2022-09-03T05:32:56;19.10;99.90
34833;DHT22;55941;50.800;4.342;2022-09-03T05:35:21;19.10;99.90
34833;DHT22;55941;50.800;4.342;2022-09-03T05:37:47;19.10;99.90
34833;DHT22;55941;50.800;4.342;2022-09-03T05:40:13;19.20;99.90
34833;DHT22;55941;50.800;4.342;2022-09-03T05:42:39;19.30;99.90
34833;DHT22;55941;50.800;4.342;2022-09-03T05:45:08;19.40;99.90
34833;DHT22;55941;50.800;4.342;2022-09-03T05:47:38;19.40;99.90
34833;DHT22;55941;50.800;4.342;2022-09-03T05:50:06;19.40;99.90
34833;DHT22;55941;50.800;4.342;2022-09-03T05:52:33;19.40;99.90
34833;DHT22;55941;50.800;4.342;2022-09-03T05:55:02;19.40;99.90
34833;DHT22;55941;50.800;4.342;2022-09-03T05:57:29;19.50;99.90
34833;DHT22;55941;50.800;4.342;2022-09-03T05:59:55;19.50;99.90
34833;DHT22;55941;50.800;4.342;2022-09-03T06:02:21;19.50;99.90
34833;DHT22;55941;50.800;4.342;2022-09-03T06:04:47;19.50;99.90
34833;DHT22;55941;50.800;4.342;2022-09-03T06:07:13;19.50;99.90
34833;DHT22;55941;50.800;4.342;2022-09-03T06:09:39;19.60;99.90
34833;DHT22;55941;50.800;4.342;2022-09-03T06:12:06;19.60;99.90
34833;DHT22;55941;50.800;4.342;2022-09-03T06:14:32;19.70;99.90
34833;DHT22;55941;50.800;4.342;2022-09-03T06:16:57;19.70;99.90
34833;DHT22;55941;50.800;4.342;2022-09-03T06:19:23;19.80;99.90
34833;DHT22;55941;50.800;4.342;2022-09-03T06:21:49;19.80;99.90
34833;DHT22;55941;50.800;4.342;2022-09-03T06:24:17;19.80;99.90
34833;DHT22;55941;50.800;4.342;2022-09-03T06:26:43;19.90;99.90
34833;DHT22;55941;50.800;4.342;2022-09-03T06:29:10;20.00;99.90
34833;DHT22;55941;50.800;4.342;2022-09-03T06:31:36;20.00;99.90
34833;DHT22;55941;50.800;4.342;2022-09-03T06:34:02;20.10;99.90
34833;DHT22;55941;50.800;4.342;2022-09-03T06:36:28;20.10;99.90
34833;DHT22;55941;50.800;4.342;2022-09-03T06:38:55;20.10;99.90
34833;DHT22;55941;50.800;4.342;2022-09-03T06:41:25;20.10;99.90
34833;DHT22;55941;50.800;4.342;2022-09-03T06:43:53;20.10;99.90
34833;DHT22;55941;50.800;4.342;2022-09-03T06:46:22;20.20;99.90
34833;DHT22;55941;50.800;4.342;2022-09-03T06:48:48;20.30;99.90
34833;DHT22;55941;50.800;4.342;2022-09-03T06:51:23;20.50;99.90
34833;DHT22;55941;50.800;4.342;2022-09-03T06:53:51;20.60;99.90
34833;DHT22;55941;50.800;4.342;2022-09-03T06:56:21;20.70;99.50
34833;DHT22;55941;50.800;4.342;2022-09-03T06:58:57;20.80;99.00
34833;DHT22;55941;50.800;4.342;2022-09-03T07:01:28;20.90;98.90
34833;DHT22;55941;50.800;4.342;2022-09-03T07:03:58;20.80;98.30
34833;DHT22;55941;50.800;4.342;2022-09-03T07:06:26;20.90;98.50
34833;DHT22;55941;50.800;4.342;2022-09-03T07:08:54;20.90;98.10
34833;DHT22;55941;50.800;4.342;2022-09-03T07:11:23;21.00;98.10
34833;DHT22;55941;50.800;4.342;2022-09-03T07:13:52;20.90;98.20
34833;DHT22;55941;50.800;4.342;2022-09-03T07:16:24;21.00;97.70
34833;DHT22;55941;50.800;4.342;2022-09-03T07:18:50;21.00;97.20
34833;DHT22;55941;50.800;4.342;2022-09-03T07:21:22;21.00;97.80
34833;DHT22;55941;50.800;4.342;2022-09-03T07:23:49;20.90;97.80
34833;DHT22;55941;50.800;4.342;2022-09-03T07:26:21;21.00;97.00
34833;DHT22;55941;50.800;4.342;2022-09-03T07:28:48;20.90;96.60
34833;DHT22;55941;50.800;4.342;2022-09-03T07:31:22;20.90;96.80
34833;DHT22;55941;50.800;4.342;2022-09-03T07:33:56;20.80;96.50
34833;DHT22;55941;50.800;4.342;2022-09-03T07:36:23;20.80;96.30
34833;DHT22;55941;50.800;4.342;2022-09-03T07:38:49;20.80;96.60
34833;DHT22;55941;50.800;4.342;2022-09-03T07:41:15;20.80;96.40
34833;DHT22;55941;50.800;4.342;2022-09-03T07:43:45;20.90;96.70
34833;DHT22;55941;50.800;4.342;2022-09-03T07:46:17;20.90;96.70
34833;DHT22;55941;50.800;4.342;2022-09-03T07:48:50;20.90;96.90
34833;DHT22;55941;50.800;4.342;2022-09-03T07:51:17;21.00;97.10
34833;DHT22;55941;50.800;4.342;2022-09-03T07:53:47;21.00;97.20
34833;DHT22;55941;50.800;4.342;2022-09-03T07:56:13;21.20;97.00
34833;DHT22;55941;50.800;4.342;2022-09-03T07:58:40;21.20;97.50
34833;DHT22;55941;50.800;4.342;2022-09-03T08:01:09;21.30;97.00
34833;DHT22;55941;50.800;4.342;2022-09-03T08:03:36;21.50;96.70
34833;DHT22;55941;50.800;4.342;2022-09-03T08:06:04;21.70;95.90
34833;DHT22;55941;50.800;4.342;2022-09-03T08:08:31;21.80;95.90
34833;DHT22;55941;50.800;4.342;2022-09-03T08:11:05;21.90;95.30
34833;DHT22;55941;50.800;4.342;2022-09-03T08:13:38;21.90;95.20
34833;DHT22;55941;50.800;4.342;2022-09-03T08:16:05;21.90;95.20
34833;DHT22;55941;50.800;4.342;2022-09-03T08:18:32;21.90;95.60
34833;DHT22;55941;50.800;4.342;2022-09-03T08:21:11;22.00;95.60
34833;DHT22;55941;50.800;4.342;2022-09-03T08:23:40;22.10;95.60
34833;DHT22;55941;50.800;4.342;2022-09-03T08:26:07;22.20;95.70
34833;DHT22;55941;50.800;4.342;2022-09-03T08:28:34;22.30;95.30
34833;DHT22;55941;50.800;4.342;2022-09-03T08:31:07;22.40;95.30
34833;DHT22;55941;50.800;4.342;2022-09-03T08:33:36;22.40;95.60
34833;DHT22;55941;50.800;4.342;2022-09-03T08:38:39;22.60;95.20
34833;DHT22;55941;50.800;4.342;2022-09-03T08:41:19;22.70;95.00
34833;DHT22;55941;50.800;4.342;2022-09-03T08:49:12;22.90;95.10
34833;DHT22;55941;50.800;4.342;2022-09-03T08:51:40;22.90;94.80
34833;DHT22;55941;50.800;4.342;2022-09-03T08:54:08;23.00;94.80
34833;DHT22;55941;50.800;4.342;2022-09-03T08:56:38;23.10;94.80
34833;DHT22;55941;50.800;4.342;2022-09-03T08:59:05;23.10;95.10
34833;DHT22;55941;50.800;4.342;2022-09-03T09:02:13;23.30;94.70
34833;DHT22;55941;50.800;4.342;2022-09-03T09:05:02;23.40;95.10
34833;DHT22;55941;50.800;4.342;2022-09-03T09:07:56;23.50;94.50
34833;DHT22;55941;50.800;4.342;2022-09-03T09:10:39;23.50;94.70
34833;DHT22;55941;50.800;4.342;2022-09-03T09:21:55;23.90;94.80
34833;DHT22;55941;50.800;4.342;2022-09-03T09:24:27;24.00;94.60
34833;DHT22;55941;50.800;4.342;2022-09-03T09:26:59;23.90;94.50
34833;DHT22;55941;50.800;4.342;2022-09-03T09:29:32;24.00;94.50
34833;DHT22;55941;50.800;4.342;2022-09-03T09:32:02;24.10;94.40
34833;DHT22;55941;50.800;4.342;2022-09-03T09:34:35;24.20;94.40
34833;DHT22;55941;50.800;4.342;2022-09-03T09:37:05;24.20;94.30
34833;DHT22;55941;50.800;4.342;2022-09-03T09:39:32;24.30;93.70
34833;DHT22;55941;50.800;4.342;2022-09-03T09:41:58;24.10;94.10
34833;DHT22;55941;50.800;4.342;2022-09-03T09:44:25;24.30;93.90
34833;DHT22;55941;50.800;4.342;2022-09-03T09:47:05;24.30;93.90
34833;DHT22;55941;50.800;4.342;2022-09-03T09:52:19;24.30;94.00
34833;DHT22;55941;50.800;4.342;2022-09-03T09:54:50;24.50;93.90
34833;DHT22;55941;50.800;4.342;2022-09-03T09:57:24;24.50;94.30
34833;DHT22;55941;50.800;4.342;2022-09-03T10:00:02;24.60;94.30
34833;DHT22;55941;50.800;4.342;2022-09-03T10:02:29;24.60;94.30
34833;DHT22;55941;50.800;4.342;2022-09-03T10:05:00;24.80;94.10
34833;DHT22;55941;50.800;4.342;2022-09-03T10:07:29;25.10;93.30
34833;DHT22;55941;50.800;4.342;2022-09-03T10:10:15;25.20;93.30
34833;DHT22;55941;50.800;4.342;2022-09-03T10:13:07;25.30;93.30
34833;DHT22;55941;50.800;4.342;2022-09-03T10:18:36;25.80;92.10
34833;DHT22;55941;50.800;4.342;2022-09-03T10:26:44;26.00;91.20
34833;DHT22;55941;50.800;4.342;2022-09-03T10:29:15;26.30;90.60
34833;DHT22;55941;50.800;4.342;2022-09-03T10:35:12;26.50;90.30
34833;DHT22;55941;50.800;4.342;2022-09-03T10:37:54;26.70;87.70
34833;DHT22;55941;50.800;4.342;2022-09-03T10:40:43;26.80;86.60
34833;DHT22;55941;50.800;4.342;2022-09-03T10:46:21;26.80;85.30
34833;DHT22;55941;50.800;4.342;2022-09-03T10:49:07;26.90;84.50
34833;DHT22;55941;50.800;4.342;2022-09-03T10:51:42;26.90;86.50
34833;DHT22;55941;50.800;4.342;2022-09-03T10:57:01;26.90;86.10
34833;DHT22;55941;50.800;4.342;2022-09-03T10:59:39;26.80;84.50
34833;DHT22;55941;50.800;4.342;2022-09-03T11:05:13;27.50;81.70
34833;DHT22;55941;50.800;4.342;2022-09-03T11:07:52;27.70;80.70
34833;DHT22;55941;50.800;4.342;2022-09-03T11:10:33;27.80;80.00
34833;DHT22;55941;50.800;4.342;2022-09-03T11:13:35;27.70;79.40
34833;DHT22;55941;50.800;4.342;2022-09-03T11:16:12;27.60;79.40
34833;DHT22;55941;50.800;4.342;2022-09-03T11:18:43;27.50;80.10
34833;DHT22;55941;50.800;4.342;2022-09-03T11:21:13;27.30;80.50
34833;DHT22;55941;50.800;4.342;2022-09-03T11:23:44;27.20;81.00
34833;DHT22;55941;50.800;4.342;2022-09-03T11:26:16;27.30;80.90
34833;DHT22;55941;50.800;4.342;2022-09-03T11:29:00;27.40;78.60
34833;DHT22;55941;50.800;4.342;2022-09-03T11:31:59;27.40;78.70
34833;DHT22;55941;50.800;4.342;2022-09-03T11:36:50;26.90;80.80
34833;DHT22;55941;50.800;4.342;2022-09-03T11:39:19;26.70;82.00
34833;DHT22;55941;50.800;4.342;2022-09-03T11:42:07;26.60;81.60
34833;DHT22;55941;50.800;4.342;2022-09-03T11:44:42;26.70;80.90
34833;DHT22;55941;50.800;4.342;2022-09-03T11:47:41;26.70;80.60
34833;DHT22;55941;50.800;4.342;2022-09-03T11:50:29;26.90;79.60
34833;DHT22;55941;50.800;4.342;2022-09-03T11:53:26;27.30;78.50
34833;DHT22;55941;50.800;4.342;2022-09-03T11:56:19;27.50;76.60
34833;DHT22;55941;50.800;4.342;2022-09-03T11:58:46;27.50;76.10
34833;DHT22;55941;50.800;4.342;2022-09-03T12:01:15;27.40;76.10
34833;DHT22;55941;50.800;4.342;2022-09-03T12:03:55;27.10;77.40
34833;DHT22;55941;50.800;4.342;2022-09-03T12:06:42;27.00;77.80
34833;DHT22;55941;50.800;4.342;2022-09-03T12:19:57;28.60;72.30
34833;DHT22;55941;50.800;4.342;2022-09-03T12:22:25;28.80;70.20
34833;DHT22;55941;50.800;4.342;2022-09-03T12:24:53;29.20;69.80
34833;DHT22;55941;50.800;4.342;2022-09-03T12:27:25;29.80;67.40
34833;DHT22;55941;50.800;4.342;2022-09-03T12:32:28;30.10;65.00
34833;DHT22;55941;50.800;4.342;2022-09-03T12:34:56;30.00;64.90
34833;DHT22;55941;50.800;4.342;2022-09-03T12:37:25;29.90;64.80
34833;DHT22;55941;50.800;4.342;2022-09-03T12:39:54;29.70;64.20
34833;DHT22;55941;50.800;4.342;2022-09-03T12:42:31;29.60;64.60
34833;DHT22;55941;50.800;4.342;2022-09-03T12:45:08;29.70;63.30
34833;DHT22;55941;50.800;4.342;2022-09-03T12:47:41;30.10;62.20
34833;DHT22;55941;50.800;4.342;2022-09-03T12:50:15;30.30;62.00
34833;DHT22;55941;50.800;4.342;2022-09-03T12:52:51;30.40;61.30
34833;DHT22;55941;50.800;4.342;2022-09-03T13:00:52;30.30;60.30
34833;DHT22;55941;50.800;4.342;2022-09-03T13:03:32;30.40;60.00
34833;DHT22;55941;50.800;4.342;2022-09-03T13:06:08;30.40;60.30
34833;DHT22;55941;50.800;4.342;2022-09-03T13:08:53;30.60;60.00
34833;DHT22;55941;50.800;4.342;2022-09-03T13:11:23;30.50;59.90
34833;DHT22;55941;50.800;4.342;2022-09-03T13:14:11;30.90;58.50
34833;DHT22;55941;50.800;4.342;2022-09-03T13:27:31;32.40;55.40
34833;DHT22;55941;50.800;4.342;2022-09-03T13:30:12;32.50;54.40
34833;DHT22;55941;50.800;4.342;2022-09-03T13:33:10;32.90;53.90
34833;DHT22;55941;50.800;4.342;2022-09-03T13:38:45;34.60;49.80
34833;DHT22;55941;50.800;4.342;2022-09-03T13:41:27;33.60;50.80
34833;DHT22;55941;50.800;4.342;2022-09-03T13:44:08;33.10;50.80
34833;DHT22;55941;50.800;4.342;2022-09-03T13:46:57;32.80;51.10
34833;DHT22;55941;50.800;4.342;2022-09-03T13:50:03;32.10;52.90
34833;DHT22;55941;50.800;4.342;2022-09-03T13:52:58;31.50;54.10
34833;DHT22;55941;50.800;4.342;2022-09-03T13:55:36;31.60;53.60
34833;DHT22;55941;50.800;4.342;2022-09-03T13:58:04;31.30;54.30
34833;DHT22;55941;50.800;4.342;2022-09-03T14:00:45;31.20;54.40
34833;DHT22;55941;50.800;4.342;2022-09-03T14:03:46;31.50;53.80
34833;DHT22;55941;50.800;4.342;2022-09-03T14:11:43;31.00;55.20
34833;DHT22;55941;50.800;4.342;2022-09-03T14:17:43;30.40;56.40
34833;DHT22;55941;50.800;4.342;2022-09-03T14:20:19;30.00;57.50
34833;DHT22;55941;50.800;4.342;2022-09-03T14:25:59;29.80;57.60
34833;DHT22;55941;50.800;4.342;2022-09-03T14:28:39;29.90;58.00
34833;DHT22;55941;50.800;4.342;2022-09-03T14:31:23;29.90;57.60
34833;DHT22;55941;50.800;4.342;2022-09-03T14:36:42;30.50;57.00
34833;DHT22;55941;50.800;4.342;2022-09-03T14:50:27;32.50;53.20
34833;DHT22;55941;50.800;4.342;2022-09-03T14:56:15;33.90;51.00
34833;DHT22;55941;50.800;4.342;2022-09-03T15:06:40;30.70;54.80
34833;DHT22;55941;50.800;4.342;2022-09-03T15:12:02;30.00;56.70
34833;DHT22;55941;50.800;4.342;2022-09-03T15:14:45;29.90;56.40
34833;DHT22;55941;50.800;4.342;2022-09-03T15:23:01;29.40;59.20
34833;DHT22;55941;50.800;4.342;2022-09-03T15:25:47;29.10;60.50
34833;DHT22;55941;50.800;4.342;2022-09-03T15:28:40;28.90;65.30
34833;DHT22;55941;50.800;4.342;2022-09-03T15:34:24;27.90;75.60
34833;DHT22;55941;50.800;4.342;2022-09-03T15:36:54;27.00;87.80
34833;DHT22;55941;50.800;4.342;2022-09-03T15:39:30;26.00;90.30
34833;DHT22;55941;50.800;4.342;2022-09-03T15:42:20;24.90;97.90
34833;DHT22;55941;50.800;4.342;2022-09-03T15:44:54;24.10;99.90
34833;DHT22;55941;50.800;4.342;2022-09-03T15:47:54;23.90;99.90
34833;DHT22;55941;50.800;4.342;2022-09-03T15:50:31;23.70;99.90
34833;DHT22;55941;50.800;4.342;2022-09-03T15:55:45;23.30;99.90
34833;DHT22;55941;50.800;4.342;2022-09-03T15:58:58;23.20;99.90
34833;DHT22;55941;50.800;4.342;2022-09-03T16:07:17;22.90;99.90
34833;DHT22;55941;50.800;4.342;2022-09-03T16:10:04;22.80;99.90
34833;DHT22;55941;50.800;4.342;2022-09-03T16:15:39;22.80;99.90
34833;DHT22;55941;50.800;4.342;2022-09-03T16:20:42;23.10;99.90
34833;DHT22;55941;50.800;4.342;2022-09-03T16:23:26;23.20;99.90
34833;DHT22;55941;50.800;4.342;2022-09-03T16:25:56;23.20;99.90
34833;DHT22;55941;50.800;4.342;2022-09-03T16:28:26;23.20;99.90
34833;DHT22;55941;50.800;4.342;2022-09-03T16:31:23;23.10;99.90
34833;DHT22;55941;50.800;4.342;2022-09-03T16:34:06;23.00;99.90
34833;DHT22;55941;50.800;4.342;2022-09-03T16:42:43;23.10;99.90
34833;DHT22;55941;50.800;4.342;2022-09-03T16:54:07;22.80;99.90
34833;DHT22;55941;50.800;4.342;2022-09-03T16:59:52;22.80;99.90
34833;DHT22;55941;50.800;4.342;2022-09-03T17:02:47;22.80;99.90
34833;DHT22;55941;50.800;4.342;2022-09-03T17:16:14;22.60;99.90
34833;DHT22;55941;50.800;4.342;2022-09-03T17:21:47;22.70;99.90
34833;DHT22;55941;50.800;4.342;2022-09-03T17:24:28;22.70;99.90
34833;DHT22;55941;50.800;4.342;2022-09-03T17:27:13;22.90;99.90
34833;DHT22;55941;50.800;4.342;2022-09-03T17:37:54;22.70;99.90
34833;DHT22;55941;50.800;4.342;2022-09-03T17:40:52;22.60;99.90
34833;DHT22;55941;50.800;4.342;2022-09-03T17:43:30;22.60;99.90
34833;DHT22;55941;50.800;4.342;2022-09-03T17:49:02;22.30;99.90
34833;DHT22;55941;50.800;4.342;2022-09-03T17:52:11;22.00;99.90
34833;DHT22;55941;50.800;4.342;2022-09-03T17:54:42;21.90;99.90
34833;DHT22;55941;50.800;4.342;2022-09-03T17:59:44;21.60;99.90
34833;DHT22;55941;50.800;4.342;2022-09-03T18:05:40;21.40;99.90
34833;DHT22;55941;50.800;4.342;2022-09-03T18:08:16;21.30;99.90
34833;DHT22;55941;50.800;4.342;2022-09-03T18:13:59;21.20;99.90
34833;DHT22;55941;50.800;4.342;2022-09-03T18:16:32;21.20;99.90
34833;DHT22;55941;50.800;4.342;2022-09-03T18:21:43;21.10;99.90
34833;DHT22;55941;50.800;4.342;2022-09-03T18:24:33;21.20;99.90
34833;DHT22;55941;50.800;4.342;2022-09-03T18:27:25;21.10;99.90
34833;DHT22;55941;50.800;4.342;2022-09-03T18:30:11;21.10;99.90
34833;DHT22;55941;50.800;4.342;2022-09-03T18:32:56;21.20;99.90
34833;DHT22;55941;50.800;4.342;2022-09-03T18:35:45;21.20;99.90
34833;DHT22;55941;50.800;4.342;2022-09-03T18:38:32;21.30;99.90
34833;DHT22;55941;50.800;4.342;2022-09-03T18:50:25;21.00;99.90
34833;DHT22;55941;50.800;4.342;2022-09-03T18:53:16;21.10;99.90
34833;DHT22;55941;50.800;4.342;2022-09-03T19:02:22;20.90;99.90
34833;DHT22;55941;50.800;4.342;2022-09-03T19:05:18;20.80;99.90
34833;DHT22;55941;50.800;4.342;2022-09-03T19:08:20;20.80;99.90
34833;DHT22;55941;50.800;4.342;2022-09-03T19:11:20;20.80;99.90
34833;DHT22;55941;50.800;4.342;2022-09-03T19:14:35;20.80;99.90
34833;DHT22;55941;50.800;4.342;2022-09-03T19:20:31;20.50;99.90
34833;DHT22;55941;50.800;4.342;2022-09-03T19:23:17;20.40;99.90
34833;DHT22;55941;50.800;4.342;2022-09-03T19:26:20;20.40;99.90
34833;DHT22;55941;50.800;4.342;2022-09-03T19:29:30;20.30;99.90
34833;DHT22;55941;50.800;4.342;2022-09-03T19:32:24;20.30;99.90
34833;DHT22;55941;50.800;4.342;2022-09-03T19:35:18;20.10;99.90
34833;DHT22;55941;50.800;4.342;2022-09-03T19:38:21;20.00;99.90
34833;DHT22;55941;50.800;4.342;2022-09-03T19:41:19;19.90;99.90
34833;DHT22;55941;50.800;4.342;2022-09-03T19:47:43;19.70;99.90
34833;DHT22;55941;50.800;4.342;2022-09-03T19:50:34;19.80;99.90
34833;DHT22;55941;50.800;4.342;2022-09-03T19:53:20;20.00;99.90
34833;DHT22;55941;50.800;4.342;2022-09-03T19:56:17;19.80;99.90
34833;DHT22;55941;50.800;4.342;2022-09-03T19:59:12;19.70;99.90
34833;DHT22;55941;50.800;4.342;2022-09-03T20:01:59;19.50;99.90
34833;DHT22;55941;50.800;4.342;2022-09-03T20:04:50;19.50;99.90
34833;DHT22;55941;50.800;4.342;2022-09-03T20:07:36;19.50;99.90
34833;DHT22;55941;50.800;4.342;2022-09-03T20:10:21;19.70;99.90
34833;DHT22;55941;50.800;4.342;2022-09-03T20:13:11;19.60;99.90
34833;DHT22;55941;50.800;4.342;2022-09-03T20:15:57;19.60;99.90
34833;DHT22;55941;50.800;4.342;2022-09-03T20:20:54;19.70;99.90
34833;DHT22;55941;50.800;4.342;2022-09-03T20:26:14;19.50;99.90
34833;DHT22;55941;50.800;4.342;2022-09-03T20:31:26;19.40;99.90
34833;DHT22;55941;50.800;4.342;2022-09-03T20:33:57;19.40;99.90
34833;DHT22;55941;50.800;4.342;2022-09-03T20:52:20;19.30;99.90
34833;DHT22;55941;50.800;4.342;2022-09-03T21:00:16;19.10;99.90
34833;DHT22;55941;50.800;4.342;2022-09-03T21:22:53;19.00;99.90
34833;DHT22;55941;50.800;4.342;2022-09-03T21:25:31;19.00;99.90
34833;DHT22;55941;50.800;4.342;2022-09-03T21:28:11;19.00;99.90
34833;DHT22;55941;50.800;4.342;2022-09-03T21:30:39;19.00;99.90
34833;DHT22;55941;50.800;4.342;2022-09-03T21:33:12;18.90;99.90